Terminal Aerodrome Forecast
Issued by NWS Caribou, ME

Current Version | Previous Version | Text Only | Print | Product List | Glossary On
Versions: 1 2 3 4 5 6 7 8 9 10 11 12
000
FTUS41 KCAR 121700
TAFCAR
TAF
KCAR 121721Z 1218/1318 21007KT P6SM SKC
     FM122300 20004KT P6SM FEW250
     FM131600 18007KT 6SM -SHRA BKN050=

USA.gov is the U.S. government's official web portal to all federal, state and local government web resources and services.